Time;durP1;ratioP1;P1;durP2;ratioP2;P2;SDS_P1;SDS_P2;PMS_P1;PMS_P2;Temp;Humidity;BMP_temperature;BMP_pressure;BME280_temperature;BME280_humidity;BME280_pressure;Samples;Min_cycle;Max_cycle;Signal;HPM_P1;HPM_P2
2022/09/07 00:00:42;;;;;;;1.50;0.52;;;15.80;99.90;;;;;;5051018;28;20510;-86
2022/09/07 00:03:09;;;;;;;0.68;0.68;;;15.80;99.90;;;;;;5051412;28;20969;-87
2022/09/07 00:05:50;;;;;;;0.52;0.50;;;15.90;99.90;;;;;;5052895;28;20415;-88
2022/09/07 00:08:20;;;;;;;0.45;0.45;;;15.90;99.90;;;;;;5046886;28;20441;-87
2022/09/07 00:11:15;;;;;;;0.60;0.60;;;15.80;99.90;;;;;;5062416;28;20856;-88
2022/09/07 00:13:45;;;;;;;0.80;0.40;;;15.80;99.90;;;;;;5034337;28;20443;-87
2022/09/07 00:16:24;;;;;;;0.55;0.55;;;15.80;99.90;;;;;;5048915;28;20446;-87
2022/09/07 00:18:54;;;;;;;0.40;0.40;;;15.80;99.90;;;;;;5058937;28;20489;-87
2022/09/07 00:21:21;;;;;;;0.20;0.20;;;15.90;99.90;;;;;;5062244;28;20435;-88
2022/09/07 00:23:49;;;;;;;0.95;0.63;;;15.90;99.90;;;;;;5059927;28;20431;-87
2022/09/07 00:26:24;;;;;;;0.70;0.70;;;15.90;99.90;;;;;;5034374;28;20517;-87
2022/09/07 00:28:52;;;;;;;0.60;0.40;;;15.90;99.90;;;;;;5046872;28;20499;-87
2022/09/07 00:31:21;;;;;;;0.50;0.50;;;16.00;99.90;;;;;;5067897;28;20439;-87
2022/09/07 00:33:50;;;;;;;0.50;0.50;;;16.00;99.90;;;;;;5035458;28;20459;-87
2022/09/07 00:36:18;;;;;;;0.40;0.40;;;16.00;99.90;;;;;;5046141;28;20999;-87
2022/09/07 00:38:48;;;;;;;0.50;0.50;;;16.00;99.90;;;;;;5058667;28;20434;-87
2022/09/07 00:41:16;;;;;;;0.60;0.60;;;16.00;99.90;;;;;;5061445;28;20847;-87
2022/09/07 00:43:52;;;;;;;0.52;0.52;;;15.90;99.90;;;;;;5065257;28;20434;-87
2022/09/07 00:46:28;;;;;;;0.30;0.30;;;16.00;99.90;;;;;;5039012;28;20448;-87
2022/09/07 00:49:06;;;;;;;0.68;0.40;;;16.00;99.90;;;;;;5046253;28;20439;-87
2022/09/07 00:51:47;;;;;;;0.52;0.30;;;16.00;99.90;;;;;;5043154;28;20865;-87
2022/09/07 00:54:31;;;;;;;0.50;0.50;;;16.00;99.90;;;;;;5064824;28;20948;-88
2022/09/07 00:56:58;;;;;;;0.57;0.57;;;16.00;99.90;;;;;;5044186;28;20451;-86
2022/09/07 00:59:36;;;;;;;0.52;0.52;;;16.00;99.90;;;;;;5049129;28;20497;-86
2022/09/07 01:02:10;;;;;;;0.60;0.60;;;16.10;99.90;;;;;;5045079;28;20426;-86
2022/09/07 01:04:38;;;;;;;1.23;0.50;;;16.20;99.90;;;;;;5069616;28;20435;-88
2022/09/07 01:07:05;;;;;;;0.55;0.55;;;16.20;99.90;;;;;;5061542;28;20423;-89
2022/09/07 01:09:32;;;;;;;0.43;0.43;;;16.20;99.90;;;;;;5061631;28;20433;-88
2022/09/07 01:12:00;;;;;;;0.40;0.40;;;16.30;99.90;;;;;;5066406;28;20431;-89
2022/09/07 01:14:31;;;;;;;0.47;0.40;;;16.30;99.90;;;;;;5048263;28;20445;-88
2022/09/07 01:17:34;;;;;;;0.55;0.55;;;16.30;99.90;;;;;;5048554;28;20842;-88
2022/09/07 01:20:14;;;;;;;0.40;0.40;;;16.40;99.90;;;;;;5045931;28;20435;-88
2022/09/07 01:23:18;;;;;;;0.57;0.57;;;16.40;99.90;;;;;;5045556;28;20448;-93
2022/09/07 01:26:00;;;;;;;1.03;0.37;;;16.30;99.90;;;;;;5065037;28;20432;-88
2022/09/07 01:28:31;;;;;;;0.35;0.35;;;16.30;99.90;;;;;;5065735;28;20438;-87
2022/09/07 01:31:06;;;;;;;0.40;0.40;;;16.20;99.90;;;;;;5047975;28;20439;-88
2022/09/07 01:34:10;;;;;;;0.50;0.50;;;16.20;99.90;;;;;;5045983;28;20443;-89
2022/09/07 01:36:58;;;;;;;0.47;0.47;;;16.10;99.90;;;;;;5055966;28;20439;-89
2022/09/07 01:39:49;;;;;;;0.88;0.63;;;16.10;99.90;;;;;;5061635;28;20509;-88
2022/09/07 01:42:18;;;;;;;0.30;0.20;;;16.10;99.90;;;;;;5064044;28;20431;-89
2022/09/07 01:45:14;;;;;;;0.45;0.45;;;16.10;99.90;;;;;;5050965;28;20972;-88
2022/09/07 01:48:01;;;;;;;0.70;0.50;;;16.00;99.90;;;;;;4983184;28;20940;-89
2022/09/07 01:50:36;;;;;;;0.38;0.38;;;16.00;99.90;;;;;;4986766;28;20486;-88
2022/09/07 01:53:16;;;;;;;0.50;0.40;;;16.00;99.90;;;;;;4966801;28;20940;-88
2022/09/07 01:55:45;;;;;;;0.50;0.50;;;16.00;99.90;;;;;;4983461;28;20444;-87
2022/09/07 01:58:23;;;;;;;0.70;0.60;;;16.00;99.90;;;;;;4987712;28;20515;-88
2022/09/07 02:01:08;;;;;;;0.50;0.40;;;16.00;99.90;;;;;;4992350;28;20934;-88
2022/09/07 02:03:45;;;;;;;0.40;0.40;;;16.00;99.90;;;;;;4989862;28;20446;-89
2022/09/07 02:06:32;;;;;;;0.60;0.60;;;16.10;99.90;;;;;;4990168;28;20469;-89
2022/09/07 02:09:05;;;;;;;0.63;0.50;;;16.00;99.90;;;;;;4983806;28;20430;-89
2022/09/07 02:11:41;;;;;;;0.68;0.68;;;16.00;99.90;;;;;;4982206;28;21057;-87
2022/09/07 02:14:18;;;;;;;0.68;0.68;;;16.10;99.90;;;;;;4969799;28;20447;-88
2022/09/07 02:17:07;;;;;;;0.40;0.40;;;16.10;99.90;;;;;;4987171;28;20872;-87
2022/09/07 02:20:03;;;;;;;0.40;0.40;;;16.20;99.90;;;;;;4986160;28;20439;-87
2022/09/07 02:22:37;;;;;;;0.60;0.60;;;16.20;99.90;;;;;;4978896;28;20566;-83
2022/09/07 02:25:08;;;;;;;0.75;0.75;;;16.10;99.90;;;;;;5045350;28;20427;-82
2022/09/07 02:27:46;;;;;;;0.40;0.40;;;16.10;99.90;;;;;;5039204;28;20811;-82
2022/09/07 02:30:13;;;;;;;0.50;0.50;;;16.10;99.90;;;;;;5066024;28;20428;-83
2022/09/07 02:32:40;;;;;;;0.47;0.47;;;16.10;99.90;;;;;;5055726;28;20504;-84
2022/09/07 02:35:07;;;;;;;0.50;0.50;;;16.10;99.90;;;;;;5064832;28;20983;-84
2022/09/07 02:37:39;;;;;;;0.40;0.40;;;16.00;99.90;;;;;;5058426;28;20436;-83
2022/09/07 02:40:07;;;;;;;3.10;0.68;;;16.00;99.90;;;;;;5044521;28;20429;-83
2022/09/07 02:42:36;;;;;;;2.20;0.57;;;16.00;99.90;;;;;;5062592;28;20908;-84
2022/09/07 02:45:07;;;;;;;0.40;0.40;;;16.00;99.90;;;;;;5044355;28;20430;-84
2022/09/07 02:47:47;;;;;;;0.60;0.40;;;15.90;99.90;;;;;;5044573;28;20437;-83
2022/09/07 02:50:43;;;;;;;0.65;0.50;;;15.90;99.90;;;;;;5065036;28;20501;-84
2022/09/07 02:53:39;;;;;;;0.40;0.40;;;15.80;99.90;;;;;;5062525;28;20743;-85
2022/09/07 02:56:11;;;;;;;0.70;0.60;;;15.70;99.90;;;;;;5039483;28;20917;-84
2022/09/07 02:58:59;;;;;;;0.65;0.65;;;15.70;99.90;;;;;;5045375;28;20429;-84
2022/09/07 03:01:58;;;;;;;0.73;0.73;;;15.70;99.90;;;;;;5056187;28;20432;-84
2022/09/07 03:04:40;;;;;;;0.57;0.57;;;15.60;99.90;;;;;;5040974;28;20795;-84
2022/09/07 03:07:21;;;;;;;1.30;0.57;;;15.60;99.90;;;;;;5045320;28;20421;-85
2022/09/07 03:09:52;;;;;;;0.50;0.50;;;15.60;99.90;;;;;;5040865;28;20437;-85
2022/09/07 03:12:19;;;;;;;0.80;0.40;;;15.60;99.90;;;;;;5042065;28;20521;-84
2022/09/07 03:14:46;;;;;;;0.47;0.47;;;15.60;99.90;;;;;;5042637;28;20927;-85
2022/09/07 03:17:16;;;;;;;0.35;0.35;;;15.70;99.90;;;;;;5058695;28;20546;-85
2022/09/07 03:19:43;;;;;;;3.47;0.88;;;15.70;99.90;;;;;;5063738;28;20537;-85
2022/09/07 03:22:11;;;;;;;0.50;0.50;;;15.70;99.90;;;;;;5050169;28;20449;-86
2022/09/07 03:24:38;;;;;;;0.40;0.40;;;15.80;99.90;;;;;;5030674;28;20434;-86
2022/09/07 03:27:05;;;;;;;0.40;0.40;;;15.80;99.90;;;;;;5038950;28;20950;-85
2022/09/07 03:29:32;;;;;;;0.47;0.47;;;15.80;99.90;;;;;;5066502;28;20435;-85
2022/09/07 03:32:05;;;;;;;0.60;0.60;;;15.90;99.90;;;;;;5047295;28;21006;-85
2022/09/07 03:34:32;;;;;;;0.60;0.60;;;15.90;99.90;;;;;;5065656;28;20427;-86
2022/09/07 03:36:58;;;;;;;0.50;0.50;;;15.90;99.90;;;;;;5040221;28;20923;-85
2022/09/07 03:39:26;;;;;;;0.50;0.50;;;15.90;99.90;;;;;;5046296;28;20428;-85
2022/09/07 03:41:55;;;;;;;0.53;0.50;;;15.90;99.90;;;;;;5063051;28;20790;-86
2022/09/07 03:44:21;;;;;;;0.40;0.40;;;15.90;99.90;;;;;;5066225;28;20873;-85
2022/09/07 03:46:48;;;;;;;0.40;0.40;;;15.90;99.90;;;;;;5069405;28;20426;-85
2022/09/07 03:49:15;;;;;;;0.55;0.47;;;15.90;99.90;;;;;;5048753;28;20428;-86
2022/09/07 03:51:42;;;;;;;0.50;0.50;;;15.90;99.90;;;;;;5044617;28;20445;-85
2022/09/07 03:54:09;;;;;;;0.70;0.70;;;15.90;99.90;;;;;;5051406;28;20455;-86
2022/09/07 03:56:35;;;;;;;0.50;0.50;;;15.90;99.90;;;;;;5049052;28;20456;-86
2022/09/07 03:59:02;;;;;;;0.40;0.40;;;15.90;99.90;;;;;;5062947;28;20893;-87
2022/09/07 04:01:32;;;;;;;0.60;0.60;;;15.90;99.90;;;;;;5070681;28;20435;-87
2022/09/07 04:04:01;;;;;;;0.43;0.43;;;15.90;99.90;;;;;;5067285;28;20428;-87
2022/09/07 04:06:29;;;;;;;1.70;0.65;;;15.80;99.90;;;;;;5038893;28;20516;-87
2022/09/07 04:09:00;;;;;;;1.10;0.70;;;15.80;99.90;;;;;;5044024;28;20558;-87
2022/09/07 04:11:30;;;;;;;0.53;0.53;;;15.70;99.90;;;;;;5043603;28;20439;-87
2022/09/07 04:13:57;;;;;;;0.55;0.55;;;15.70;99.90;;;;;;5057315;28;20436;-87
2022/09/07 04:16:27;;;;;;;1.77;0.90;;;15.60;99.90;;;;;;5064044;28;20999;-87
2022/09/07 04:18:55;;;;;;;0.73;0.73;;;15.60;99.90;;;;;;5046882;28;20522;-87
2022/09/07 04:21:23;;;;;;;1.00;0.85;;;15.50;99.90;;;;;;5039346;28;20438;-87
2022/09/07 04:23:51;;;;;;;0.88;0.88;;;15.50;99.90;;;;;;5038928;28;20433;-87
2022/09/07 04:26:21;;;;;;;0.50;0.50;;;15.40;99.90;;;;;;5042594;28;20443;-87
2022/09/07 04:28:49;;;;;;;0.70;0.70;;;15.30;99.90;;;;;;5054701;28;20423;-88
2022/09/07 04:31:18;;;;;;;0.45;0.45;;;15.30;99.90;;;;;;5046770;28;20429;-87
2022/09/07 04:33:47;;;;;;;0.60;0.60;;;15.30;99.90;;;;;;5066050;28;20901;-85
2022/09/07 04:36:15;;;;;;;0.95;0.82;;;15.20;99.90;;;;;;5066527;28;20889;-85
2022/09/07 04:38:42;;;;;;;0.70;0.70;;;15.20;99.90;;;;;;5044509;28;20528;-86
2022/09/07 04:41:14;;;;;;;0.90;0.90;;;15.10;99.90;;;;;;5050947;28;20444;-85
2022/09/07 04:43:42;;;;;;;0.50;0.50;;;15.10;99.90;;;;;;5049177;28;20465;-86
2022/09/07 04:46:21;;;;;;;2.17;0.95;;;15.00;99.90;;;;;;5050010;28;20425;-85
2022/09/07 04:48:49;;;;;;;0.80;0.80;;;15.00;99.90;;;;;;5046771;28;20435;-91
2022/09/07 04:51:17;;;;;;;0.80;0.70;;;14.90;99.90;;;;;;5057656;28;20451;-93
2022/09/07 04:53:47;;;;;;;0.70;0.70;;;14.90;99.90;;;;;;5071515;28;20427;-91
2022/09/07 04:56:15;;;;;;;0.70;0.70;;;14.90;99.90;;;;;;5073971;28;20442;-92
2022/09/07 04:58:43;;;;;;;0.82;0.82;;;14.90;99.90;;;;;;5053038;28;20512;-93
2022/09/07 05:01:13;;;;;;;0.90;0.90;;;14.90;99.90;;;;;;5059845;28;20493;-92
2022/09/07 05:03:40;;;;;;;0.90;0.90;;;14.90;99.90;;;;;;5072623;28;20451;-92
2022/09/07 05:06:09;;;;;;;3.08;0.80;;;14.90;99.90;;;;;;5059484;28;20429;-94
2022/09/07 05:08:40;;;;;;;0.63;0.63;;;14.90;99.90;;;;;;5058449;28;20429;-92
2022/09/07 05:11:08;;;;;;;0.45;0.45;;;15.00;99.90;;;;;;5077544;28;20459;-92
2022/09/07 05:13:35;;;;;;;0.50;0.50;;;14.90;99.90;;;;;;5050222;28;20541;-94
2022/09/07 05:16:10;;;;;;;0.82;0.82;;;14.90;99.90;;;;;;5053271;28;20425;-93
2022/09/07 05:18:37;;;;;;;0.80;0.80;;;14.90;99.90;;;;;;5042002;28;20537;-93
2022/09/07 05:21:16;;;;;;;0.85;0.60;;;15.00;99.90;;;;;;5066389;28;20512;-92
2022/09/07 05:23:43;;;;;;;0.60;0.60;;;15.00;99.90;;;;;;5053804;28;20429;-92
2022/09/07 05:26:11;;;;;;;1.13;0.55;;;15.00;99.90;;;;;;5076456;28;20431;-92
2022/09/07 05:28:38;;;;;;;0.60;0.60;;;15.00;99.90;;;;;;5066955;28;20594;-92
2022/09/07 05:31:10;;;;;;;0.67;0.67;;;15.00;99.90;;;;;;5051736;28;20867;-94
2022/09/07 05:33:47;;;;;;;1.20;0.70;;;15.10;99.90;;;;;;5066665;28;20425;-92
2022/09/07 05:36:35;;;;;;;0.60;0.60;;;15.10;99.90;;;;;;5073512;28;20422;-93
2022/09/07 05:39:04;;;;;;;0.75;0.75;;;15.20;99.90;;;;;;5051246;28;20439;-93
2022/09/07 05:41:31;;;;;;;0.80;0.80;;;15.20;99.90;;;;;;5046879;28;20448;-92
2022/09/07 05:43:59;;;;;;;0.50;0.50;;;15.30;99.90;;;;;;5046929;28;20512;-93
2022/09/07 05:46:46;;;;;;;0.60;0.60;;;15.40;99.90;;;;;;5044205;28;20830;-94
2022/09/07 05:49:12;;;;;;;0.85;0.68;;;15.50;99.90;;;;;;5071485;28;20475;-94
2022/09/07 05:51:42;;;;;;;0.65;0.65;;;15.60;99.90;;;;;;5054724;28;20431;-93
2022/09/07 05:54:10;;;;;;;0.60;0.60;;;15.70;99.90;;;;;;5055901;28;20443;-93
2022/09/07 05:56:37;;;;;;;0.80;0.80;;;15.70;99.90;;;;;;5043826;28;20446;-93
2022/09/07 05:59:04;;;;;;;1.80;0.73;;;15.90;99.90;;;;;;5056869;28;20433;-92
2022/09/07 06:01:31;;;;;;;0.70;0.70;;;16.00;99.90;;;;;;5071515;28;20943;-93
2022/09/07 06:03:59;;;;;;;0.40;0.40;;;16.20;99.90;;;;;;5053594;28;20464;-93
2022/09/07 06:06:29;;;;;;;0.40;0.40;;;16.70;99.90;;;;;;5067333;28;20559;-91
2022/09/07 06:08:57;;;;;;;0.40;0.40;;;17.40;99.90;;;;;;5046819;28;20465;-92
2022/09/07 06:11:25;;;;;;;0.40;0.40;;;18.20;99.90;;;;;;5066998;28;20428;-90
2022/09/07 06:13:52;;;;;;;0.57;0.57;;;18.80;99.90;;;;;;5072619;28;21877;-91
2022/09/07 06:16:20;;;;;;;1.10;0.80;;;19.20;99.90;;;;;;5046523;28;20429;-91
2022/09/07 06:18:48;;;;;;;0.85;0.85;;;19.50;99.90;;;;;;5041199;28;20433;-90
2022/09/07 06:21:21;;;;;;;0.80;0.80;;;19.80;99.90;;;;;;5056690;28;20478;-90
2022/09/07 06:23:48;;;;;;;0.88;0.88;;;20.00;99.90;;;;;;5061107;28;20507;-89
2022/09/07 06:26:18;;;;;;;1.10;1.00;;;20.10;99.90;;;;;;5041184;28;20967;-89
2022/09/07 06:28:47;;;;;;;0.93;0.93;;;20.40;99.90;;;;;;5042272;28;20434;-89
2022/09/07 06:31:18;;;;;;;0.77;0.77;;;21.00;99.90;;;;;;5060205;28;20431;-90
2022/09/07 06:33:46;;;;;;;0.80;0.80;;;21.60;99.90;;;;;;5039825;28;20483;-88
2022/09/07 06:36:33;;;;;;;0.95;0.95;;;22.00;99.90;;;;;;5046081;28;20782;-88
2022/09/07 06:39:03;;;;;;;0.88;0.88;;;22.50;99.90;;;;;;5065689;28;20438;-93
2022/09/07 06:41:30;;;;;;;1.17;1.17;;;22.90;99.90;;;;;;5053986;28;20430;-94
2022/09/07 06:44:17;;;;;;;0.70;0.70;;;23.40;99.90;;;;;;5061371;28;20423;-94
2022/09/07 06:46:44;;;;;;;0.70;0.70;;;23.20;99.90;;;;;;5075739;28;20427;-95
2022/09/07 06:49:29;;;;;;;1.00;0.90;;;22.90;99.90;;;;;;5065780;28;20447;-93
2022/09/07 06:51:56;;;;;;;0.80;0.75;;;23.20;99.90;;;;;;5096389;28;20411;-94
2022/09/07 06:54:23;;;;;;;0.75;0.75;;;23.50;99.90;;;;;;5096705;28;20478;-94
2022/09/07 06:57:10;;;;;;;0.95;0.95;;;23.80;99.90;;;;;;5063085;28;20457;-94
2022/09/07 06:59:38;;;;;;;0.93;0.93;;;24.10;99.90;;;;;;5035487;28;20431;-93
2022/09/07 07:02:05;;;;;;;1.17;1.08;;;23.90;99.90;;;;;;5038531;28;20535;-94
2022/09/07 07:04:33;;;;;;;0.90;0.90;;;24.00;99.90;;;;;;5084892;28;20458;-93
2022/09/07 07:07:09;;;;;;;0.77;0.77;;;23.80;99.90;;;;;;5075374;28;20438;-93
2022/09/07 07:09:37;;;;;;;1.05;0.95;;;;;;;;;;5056477;28;20495;-93
2022/09/07 07:12:04;;;;;;;0.60;0.60;;;;;;;;;;5054786;28;20510;-94
2022/09/07 07:14:31;;;;;;;1.10;0.85;;;;;;;;;;5052078;28;20915;-93
2022/09/07 07:17:01;;;;;;;1.10;1.00;;;;;;;;;;5056602;28;20796;-93
2022/09/07 07:19:28;;;;;;;0.82;0.82;;;23.90;99.90;;;;;;5049324;28;20499;-93
2022/09/07 07:21:58;;;;;;;0.82;0.82;;;;;;;;;;5055221;28;20502;-93
2022/09/07 07:24:45;;;;;;;0.80;0.80;;;;;;;;;;5046674;28;20424;-94
2022/09/07 07:27:12;;;;;;;0.80;0.80;;;23.10;99.90;;;;;;5070400;28;20534;-93
2022/09/07 07:29:39;;;;;;;0.90;0.90;;;23.70;99.90;;;;;;5043805;28;20478;-94
2022/09/07 07:32:06;;;;;;;0.77;0.77;;;23.90;99.90;;;;;;5069809;28;20514;-93
2022/09/07 07:34:33;;;;;;;0.90;0.80;;;24.20;99.90;;;;;;5068390;28;20948;-94
2022/09/07 07:37:06;;;;;;;1.00;1.00;;;24.30;99.90;;;;;;5050367;28;20423;-92
2022/09/07 07:39:36;;;;;;;0.70;0.70;;;24.90;99.90;;;;;;5052702;28;20493;-91
2022/09/07 07:42:22;;;;;;;0.77;0.77;;;25.30;99.90;;;;;;5048295;28;20443;-93
2022/09/07 07:44:55;;;;;;;0.70;0.70;;;25.60;99.90;;;;;;5042864;28;20437;-92
2022/09/07 07:47:42;;;;;;;0.73;0.73;;;25.40;99.90;;;;;;5049884;28;20487;-90
2022/09/07 07:50:09;;;;;;;0.70;0.70;;;25.30;99.90;;;;;;5054583;28;20833;-91
2022/09/07 07:52:56;;;;;;;0.93;0.67;;;25.20;99.90;;;;;;5038468;28;20423;-90
2022/09/07 07:55:44;;;;;;;1.52;0.90;;;;;;;;;;5058244;28;20837;-90
2022/09/07 07:58:11;;;;;;;0.60;0.60;;;;;;;;;;5053333;28;20422;-92
2022/09/07 08:00:39;;;;;;;0.68;0.68;;;;;;;;;;5046229;28;20432;-90
2022/09/07 08:03:21;;;;;;;0.70;0.70;;;;;;;;;;5050576;28;20436;-90
2022/09/07 08:05:48;;;;;;;0.68;0.68;;;;;;;;;;5063380;28;20479;-90
2022/09/07 08:08:15;;;;;;;0.60;0.60;;;;;;;;;;5081862;28;20483;-88
2022/09/07 08:10:42;;;;;;;0.60;0.60;;;;;;;;;;5052393;28;20861;-90
2022/09/07 08:13:10;;;;;;;0.52;0.52;;;;;;;;;;5057715;28;20973;-89
2022/09/07 08:15:45;;;;;;;0.50;0.50;;;;;;;;;;5049673;28;20491;-89
2022/09/07 08:18:14;;;;;;;0.80;0.75;;;25.70;99.90;;;;;;5071636;28;20925;-88
2022/09/07 08:20:44;;;;;;;0.70;0.70;;;26.50;99.90;;;;;;5076309;28;20451;-89
2022/09/07 08:23:11;;;;;;;0.70;0.70;;;26.60;99.90;;;;;;5055591;28;20965;-89
2022/09/07 08:25:37;;;;;;;0.40;0.40;;;26.30;99.90;;;;;;5071892;28;20929;-90
2022/09/07 08:28:04;;;;;;;0.43;0.43;;;26.50;99.90;;;;;;5069296;28;20447;-89
2022/09/07 08:30:31;;;;;;;0.52;0.52;;;26.20;99.90;;;;;;5067508;28;20420;-88
2022/09/07 08:32:58;;;;;;;1.30;0.80;;;25.30;99.90;;;;;;5050949;28;20454;-89
2022/09/07 08:35:24;;;;;;;0.55;0.55;;;24.80;99.90;;;;;;5046159;28;20576;-87
2022/09/07 08:37:51;;;;;;;0.63;0.63;;;25.10;99.90;;;;;;5059026;28;20430;-89
2022/09/07 08:40:19;;;;;;;1.70;0.60;;;25.70;99.90;;;;;;5048641;28;20441;-91
2022/09/07 08:43:22;;;;;;;0.55;0.55;;;26.40;99.90;;;;;;5062456;28;20435;-90
2022/09/07 08:45:53;;;;;;;0.50;0.50;;;27.10;99.90;;;;;;5047975;28;20515;-87
2022/09/07 08:48:34;;;;;;;0.55;0.45;;;26.90;99.90;;;;;;5041139;28;20421;-85
2022/09/07 08:51:25;;;;;;;1.08;0.45;;;26.80;99.90;;;;;;5063654;28;20489;-87
2022/09/07 08:53:52;;;;;;;0.50;0.50;;;27.00;99.90;;;;;;5035853;28;20449;-88
2022/09/07 08:56:41;;;;;;;0.68;0.68;;;27.00;99.90;;;;;;5045292;28;20435;-92
2022/09/07 08:59:59;;;;;;;0.45;0.45;;;27.00;99.90;;;;;;5074434;28;20416;-91
2022/09/07 09:02:26;;;;;;;0.60;0.60;;;27.20;99.90;;;;;;5066600;28;20447;-90
2022/09/07 09:05:02;;;;;;;0.50;0.50;;;27.50;99.90;;;;;;5050616;28;20519;-92
2022/09/07 09:07:53;;;;;;;0.40;0.40;;;27.30;99.90;;;;;;5050434;28;20915;-89
2022/09/07 09:10:37;;;;;;;0.50;0.50;;;26.90;99.90;;;;;;5049292;28;20443;-90
2022/09/07 09:13:10;;;;;;;0.50;0.50;;;26.70;99.90;;;;;;5046967;28;20452;-91
2022/09/07 09:16:16;;;;;;;0.50;0.50;;;26.70;99.90;;;;;;5067091;28;21002;-92
2022/09/07 09:18:45;;;;;;;0.80;0.80;;;26.30;99.90;;;;;;5027537;28;20437;-91
2022/09/07 09:21:18;;;;;;;0.47;0.47;;;26.00;99.90;;;;;;5051309;28;20441;-92
2022/09/07 09:23:49;;;;;;;0.68;0.63;;;25.70;99.90;;;;;;5047589;28;20437;-91
2022/09/07 09:26:23;;;;;;;0.40;0.40;;;25.70;99.90;;;;;;5052164;28;20728;-91
2022/09/07 09:28:50;;;;;;;0.60;0.60;;;25.80;99.90;;;;;;5052332;28;20884;-91
2022/09/07 09:31:19;;;;;;;2.45;0.57;;;26.60;99.90;;;;;;5065781;28;20432;-90
2022/09/07 09:34:04;;;;;;;0.55;0.55;;;27.40;99.90;;;;;;5062269;28;20797;-90
2022/09/07 09:36:41;;;;;;;0.50;0.50;;;27.60;99.90;;;;;;5063890;28;20432;-91
2022/09/07 09:39:29;;;;;;;0.40;0.40;;;27.60;99.90;;;;;;5048854;28;20433;-90
2022/09/07 09:42:22;;;;;;;0.50;0.50;;;27.70;99.90;;;;;;5044003;28;20464;-89
2022/09/07 09:44:49;;;;;;;0.50;0.50;;;27.90;99.90;;;;;;5065741;28;20440;-89
2022/09/07 09:47:25;;;;;;;0.45;0.45;;;27.60;99.90;;;;;;5044551;28;20431;-88
2022/09/07 09:49:58;;;;;;;0.50;0.50;;;28.10;99.90;;;;;;5046135;28;20428;-87
2022/09/07 09:52:28;;;;;;;0.57;0.57;;;28.30;99.90;;;;;;5048169;28;20437;-89
2022/09/07 09:55:00;;;;;;;0.52;0.52;;;28.10;99.90;;;;;;5052118;28;20435;-89
2022/09/07 09:58:03;;;;;;;0.30;0.30;;;28.30;99.90;;;;;;5042128;28;20421;-89
2022/09/07 10:01:01;;;;;;;0.63;0.63;;;28.50;99.90;;;;;;5063300;28;20424;-88
2022/09/07 10:03:48;;;;;;;0.60;0.60;;;28.20;99.90;;;;;;5078543;28;20442;-89
2022/09/07 10:06:27;;;;;;;0.52;0.52;;;28.00;99.90;;;;;;5043755;28;20489;-89
2022/09/07 10:09:00;;;;;;;0.52;0.52;;;27.50;99.90;;;;;;5053130;28;20425;-88
2022/09/07 10:11:45;;;;;;;0.50;0.50;;;27.00;99.90;;;;;;5032597;28;20488;-88
2022/09/07 10:14:32;;;;;;;1.00;0.40;;;27.10;99.90;;;;;;5044281;28;20443;-89
2022/09/07 10:17:00;;;;;;;0.50;0.50;;;27.50;99.90;;;;;;5038640;28;20449;-88
2022/09/07 10:19:34;;;;;;;0.50;0.50;;;27.80;99.90;;;;;;5042707;28;20512;-89
2022/09/07 10:22:35;;;;;;;0.45;0.45;;;28.30;99.90;;;;;;5049381;28;20440;-88
2022/09/07 10:25:23;;;;;;;0.47;0.47;;;28.90;99.90;;;;;;5062302;28;20431;-89
2022/09/07 10:28:02;;;;;;;0.40;0.40;;;29.30;99.90;;;;;;5064015;28;20420;-87
2022/09/07 10:30:40;;;;;;;0.70;0.70;;;29.20;99.90;;;;;;5058307;28;20802;-87
2022/09/07 10:33:18;;;;;;;0.50;0.50;;;28.90;99.90;;;;;;5039519;28;20475;-88
2022/09/07 10:35:58;;;;;;;0.70;0.70;;;29.30;99.90;;;;;;5035234;28;20433;-88
2022/09/07 10:38:30;;;;;;;0.50;0.50;;;29.50;99.90;;;;;;5053100;28;20470;-88
2022/09/07 10:41:09;;;;;;;0.50;0.50;;;29.70;99.90;;;;;;5079801;28;20470;-87
2022/09/07 10:43:50;;;;;;;0.47;0.47;;;29.60;99.90;;;;;;5080539;28;20429;-88
2022/09/07 10:46:39;;;;;;;0.60;0.60;;;29.60;99.90;;;;;;5059895;28;21065;-87
2022/09/07 10:49:40;;;;;;;0.40;0.40;;;29.70;99.90;;;;;;5057240;28;20436;-88
2022/09/07 10:52:54;;;;;;;0.63;0.50;;;29.80;99.90;;;;;;5055727;28;20439;-88
2022/09/07 10:55:31;;;;;;;0.57;0.57;;;29.40;99.90;;;;;;5042744;28;20453;-88
2022/09/07 10:58:27;;;;;;;0.55;0.55;;;29.90;99.90;;;;;;5052372;28;20470;-87
2022/09/07 11:01:49;;;;;;;0.40;0.40;;;30.90;99.90;;;;;;5059600;28;20534;-88
2022/09/07 11:04:45;;;;;;;0.50;0.50;;;32.00;99.90;;;;;;5059761;28;20485;-88
2022/09/07 11:07:41;;;;;;;0.70;0.47;;;32.10;99.90;;;;;;5046339;28;20507;-87
2022/09/07 11:10:48;;;;;;;0.70;0.70;;;31.90;99.90;;;;;;5051955;28;20431;-88
2022/09/07 11:13:22;;;;;;;0.50;0.50;;;31.20;99.90;;;;;;5059572;28;20439;-87
2022/09/07 11:16:06;;;;;;;0.60;0.60;;;30.60;99.90;;;;;;5062414;28;20838;-87
2022/09/07 11:19:01;;;;;;;0.63;0.63;;;30.20;99.90;;;;;;5045004;28;20443;-87
2022/09/07 11:21:59;;;;;;;0.50;0.50;;;29.80;99.90;;;;;;5049723;28;20491;-87
2022/09/07 11:24:32;;;;;;;0.75;0.52;;;29.40;99.90;;;;;;5052791;28;20437;-88
2022/09/07 11:27:12;;;;;;;0.50;0.50;;;28.90;99.90;;;;;;5040407;28;20441;-87
2022/09/07 11:29:49;;;;;;;0.52;0.52;;;28.30;99.90;;;;;;5061882;28;20502;-88
2022/09/07 11:32:23;;;;;;;1.00;1.00;;;28.10;99.90;;;;;;5047116;28;20460;-86
2022/09/07 11:35:04;;;;;;;0.77;0.77;;;28.10;99.90;;;;;;5058953;28;20480;-87
2022/09/07 11:37:45;;;;;;;0.50;0.50;;;28.40;99.90;;;;;;5056206;28;20848;-87
2022/09/07 11:40:36;;;;;;;0.52;0.52;;;29.20;99.90;;;;;;5038627;28;20614;-88
2022/09/07 11:43:15;;;;;;;0.50;0.50;;;29.60;99.90;;;;;;5060234;28;20427;-88
2022/09/07 11:45:56;;;;;;;0.50;0.50;;;30.10;99.90;;;;;;5041085;28;20448;-86
2022/09/07 11:48:35;;;;;;;0.50;0.50;;;29.90;99.90;;;;;;5053898;28;20509;-88
2022/09/07 11:51:12;;;;;;;0.65;0.60;;;29.70;99.90;;;;;;5056481;28;20435;-86
2022/09/07 11:53:44;;;;;;;0.60;0.60;;;30.50;99.90;;;;;;5066094;28;20438;-88
2022/09/07 11:56:39;;;;;;;0.50;0.50;;;30.90;99.90;;;;;;5058826;28;20467;-87
2022/09/07 11:59:21;;;;;;;1.00;0.70;;;30.10;99.90;;;;;;5061205;28;20964;-87
2022/09/07 12:01:59;;;;;;;0.57;0.57;;;28.90;99.90;;;;;;5045431;28;20440;-87
2022/09/07 12:04:32;;;;;;;0.70;0.70;;;28.40;99.90;;;;;;5058609;28;20438;-87
2022/09/07 12:07:36;;;;;;;0.50;0.50;;;28.40;99.90;;;;;;5042087;28;20461;-86
2022/09/07 12:10:16;;;;;;;0.80;0.60;;;29.00;99.90;;;;;;5058838;28;20505;-85
2022/09/07 12:13:09;;;;;;;0.50;0.50;;;29.70;99.90;;;;;;5052932;28;20939;-86
2022/09/07 12:15:50;;;;;;;0.55;0.52;;;29.40;99.90;;;;;;5060222;28;20439;-84
2022/09/07 12:18:38;;;;;;;0.70;0.70;;;28.70;99.90;;;;;;5045147;28;20428;-86
2022/09/07 12:21:42;;;;;;;0.50;0.50;;;29.00;99.90;;;;;;5057807;28;20439;-86
2022/09/07 12:24:35;;;;;;;0.50;0.50;;;29.50;99.90;;;;;;5046530;28;20578;-87
2022/09/07 12:27:19;;;;;;;0.60;0.60;;;30.30;99.90;;;;;;5026907;28;20803;-87
2022/09/07 12:29:47;;;;;;;0.40;0.40;;;30.80;99.90;;;;;;5037019;28;20448;-88
2022/09/07 12:32:45;;;;;;;0.50;0.50;;;30.90;99.90;;;;;;5061740;28;21008;-87
2022/09/07 12:35:28;;;;;;;0.40;0.40;;;31.00;99.90;;;;;;5039834;28;20543;-87
2022/09/07 12:38:23;;;;;;;0.40;0.40;;;30.90;99.90;;;;;;5058605;28;20464;-88
2022/09/07 12:41:00;;;;;;;0.60;0.60;;;31.00;99.90;;;;;;5027765;28;20431;-87
2022/09/07 12:43:34;;;;;;;0.60;0.60;;;31.60;99.90;;;;;;5060539;28;21097;-87
2022/09/07 12:46:01;;;;;;;0.40;0.40;;;31.80;99.90;;;;;;5062340;28;20451;-86
2022/09/07 12:48:42;;;;;;;0.40;0.40;;;31.50;99.90;;;;;;5053701;28;20425;-86
2022/09/07 12:51:21;;;;;;;0.47;0.47;;;31.50;99.90;;;;;;5038874;28;20490;-87
2022/09/07 12:54:40;;;;;;;0.40;0.40;;;31.20;99.90;;;;;;5043579;28;20417;-86
2022/09/07 12:57:15;;;;;;;0.30;0.30;;;31.30;99.90;;;;;;5081256;28;20421;-86
2022/09/07 13:00:22;;;;;;;0.30;0.30;;;31.30;99.90;;;;;;5092601;28;20421;-87
2022/09/07 13:03:37;;;;;;;0.30;0.30;;;30.70;99.90;;;;;;5078916;28;20413;-86
2022/09/07 13:06:44;;;;;;;0.47;0.47;;;30.20;99.90;;;;;;5072367;28;20803;-85
2022/09/07 13:09:36;;;;;;;0.30;0.30;;;29.90;99.90;;;;;;5089085;28;20438;-83
2022/09/07 13:12:22;;;;;;;0.30;0.30;;;29.90;99.90;;;;;;5053926;28;20429;-84
2022/09/07 13:15:31;;;;;;;0.40;0.30;;;29.70;99.90;;;;;;5047738;28;20420;-84
2022/09/07 13:17:58;;;;;;;0.40;0.40;;;29.10;99.90;;;;;;5063506;28;20427;-83
2022/09/07 13:20:30;;;;;;;0.40;0.40;;;28.70;99.90;;;;;;5062074;28;20440;-83
2022/09/07 13:23:17;;;;;;;0.57;0.57;;;28.50;99.90;;;;;;5055953;28;20552;-84
2022/09/07 13:25:46;;;;;;;0.40;0.40;;;28.60;99.90;;;;;;5039448;28;20916;-83
2022/09/07 13:28:37;;;;;;;0.30;0.30;;;28.80;99.90;;;;;;5056472;28;20423;-84
2022/09/07 13:31:12;;;;;;;0.30;0.30;;;28.70;99.90;;;;;;5059040;28;20487;-85
2022/09/07 13:33:44;;;;;;;0.40;0.40;;;28.80;99.90;;;;;;5042202;28;20463;-83
2022/09/07 13:36:30;;;;;;;0.40;0.40;;;29.20;99.90;;;;;;5049315;28;20443;-84
2022/09/07 13:38:57;;;;;;;0.38;0.38;;;29.90;99.90;;;;;;5043341;28;20937;-84
2022/09/07 13:41:34;;;;;;;0.40;0.40;;;29.90;99.90;;;;;;5061173;28;20458;-85